Lambton Shores, Canada
Current Conditions -  °F | °C
As of 7:00 PM on Saturday 20 Dec 2014 (Local Time) from CYZR Reporting Station
Haze Haze  
Wind Chill: 28°   Ceiling: 2800
Heat Index: 28°   Visibility: 5mi
Dew Point: 21°   Wind: 3mph
Humidity: 74%   Direction: 200°SSW
Pressure: 30.29"   Gusts: NA
Location:  43.24°N, 81.87°W
Report Text: CYZR 210000Z AUTO 20003KT 5SM HZ OVC028 M02/M06 A3029 RMK SLP268
Loading
Personal Weather Stations






























Interactive Weather Map New forecast layout! Learn more

10-Day Weather Forecast

Advertisements
Track Severe Weather on mobile